Time;durP1;ratioP1;P1;durP2;ratioP2;P2;SDS_P1;SDS_P2;PMS_P1;PMS_P2;Temp;Humidity;BMP_temperature;BMP_pressure;BME280_temperature;BME280_humidity;BME280_pressure;Samples;Min_cycle;Max_cycle;Signal;HPM_P1;HPM_P2
2022/03/22 00:02:17;;;;;;;52.45;26.08;;;;;;;8.60;100.00;102712.00;4998075;28;20446;-78
2022/03/22 00:04:43;;;;;;;59.83;26.63;;;;;;;8.67;100.00;102717.22;4995734;28;20106;-78
2022/03/22 00:07:08;;;;;;;49.42;25.85;;;;;;;8.63;100.00;102711.00;4993705;28;20026;-78
2022/03/22 00:09:34;;;;;;;51.30;25.77;;;;;;;8.68;100.00;102710.81;5008970;28;20189;-78
2022/03/22 00:12:00;;;;;;;48.83;24.52;;;;;;;8.64;100.00;102715.47;5001317;28;20101;-78
2022/03/22 00:14:26;;;;;;;52.40;24.05;;;;;;;8.63;100.00;102711.88;5012477;28;20061;-78
2022/03/22 00:16:53;;;;;;;51.90;27.13;;;;;;;8.56;100.00;102721.28;4981397;28;20022;-78
2022/03/22 00:19:19;;;;;;;49.05;25.73;;;;;;;8.36;100.00;102712.94;5028791;28;20058;-78
2022/03/22 00:21:46;;;;;;;52.90;25.65;;;;;;;8.33;100.00;102724.91;5001647;28;20041;-77
2022/03/22 00:24:11;;;;;;;50.97;26.30;;;;;;;8.08;100.00;102724.94;4997239;28;20041;-78
2022/03/22 00:26:37;;;;;;;52.10;25.38;;;;;;;8.06;100.00;102722.28;4979720;28;20038;-78
2022/03/22 00:29:03;;;;;;;51.42;26.55;;;;;;;7.89;100.00;102713.88;4982619;28;20060;-77
2022/03/22 00:31:29;;;;;;;55.55;26.08;;;;;;;7.75;100.00;102727.13;4996229;28;20030;-78
2022/03/22 00:33:55;;;;;;;49.95;26.67;;;;;;;7.60;100.00;102726.72;4990659;28;20185;-78
2022/03/22 00:36:20;;;;;;;57.00;26.23;;;;;;;7.69;100.00;102722.75;4994779;28;20073;-77
2022/03/22 00:38:47;;;;;;;61.50;26.63;;;;;;;7.62;100.00;102729.41;4989809;28;20575;-77
2022/03/22 00:41:13;;;;;;;48.38;24.73;;;;;;;7.53;100.00;102736.09;4976528;28;20486;-77
2022/03/22 00:43:39;;;;;;;49.15;24.48;;;;;;;7.52;100.00;102732.44;5026774;28;20060;-77
2022/03/22 00:46:05;;;;;;;50.05;24.67;;;;;;;7.48;100.00;102732.63;4999545;28;20512;-77
2022/03/22 00:48:32;;;;;;;55.83;24.80;;;;;;;7.53;100.00;102739.69;4996463;28;20026;-78
2022/03/22 00:50:57;;;;;;;50.60;25.17;;;;;;;7.56;100.00;102738.69;5010208;28;20100;-78
2022/03/22 00:53:23;;;;;;;51.20;25.38;;;;;;;7.61;100.00;102738.50;4996363;28;20101;-78
2022/03/22 00:55:49;;;;;;;47.80;25.40;;;;;;;7.57;100.00;102748.63;4988273;28;20030;-77
2022/03/22 00:58:15;;;;;;;51.25;24.88;;;;;;;7.53;100.00;102742.41;4993212;28;20113;-78
2022/03/22 01:00:41;;;;;;;52.97;25.65;;;;;;;7.71;100.00;102742.72;4998461;28;20049;-78
2022/03/22 01:03:08;;;;;;;43.50;23.85;;;;;;;7.58;100.00;102736.81;5007620;28;20393;-79
2022/03/22 01:05:35;;;;;;;47.42;23.90;;;;;;;7.43;100.00;102740.06;5001626;28;20034;-77
2022/03/22 01:08:02;;;;;;;45.92;24.48;;;;;;;7.48;100.00;102746.25;4995864;28;20061;-78
2022/03/22 01:10:31;;;;;;;49.97;24.65;;;;;;;7.45;100.00;102749.09;5002787;28;20029;-78
2022/03/22 01:13:00;;;;;;;46.58;24.85;;;;;;;7.40;100.00;102741.06;4990856;28;20046;-77
2022/03/22 01:15:32;;;;;;;52.13;24.77;;;;;;;7.36;100.00;102739.38;5005455;28;20072;-77
2022/03/22 01:18:04;;;;;;;48.58;23.15;;;;;;;7.59;100.00;102737.69;5013848;28;20042;-77
2022/03/22 01:20:31;;;;;;;48.47;23.13;;;;;;;7.55;100.00;102743.25;5001111;28;20034;-77
2022/03/22 01:22:57;;;;;;;49.95;22.95;;;;;;;7.52;100.00;102750.66;5010192;28;20117;-78
2022/03/22 01:25:26;;;;;;;49.13;22.80;;;;;;;7.46;100.00;102746.31;5012346;28;20058;-77
2022/03/22 01:27:52;;;;;;;49.10;23.63;;;;;;;7.30;100.00;102743.22;4999686;28;20026;-77
2022/03/22 01:30:19;;;;;;;44.72;23.38;;;;;;;7.30;100.00;102743.22;5002847;28;20025;-78
2022/03/22 01:32:46;;;;;;;56.78;24.00;;;;;;;7.34;100.00;102746.72;4997671;28;20046;-78
2022/03/22 01:35:12;;;;;;;43.28;23.10;;;;;;;7.37;100.00;102741.19;5012401;28;20026;-78
2022/03/22 01:37:38;;;;;;;48.92;23.00;;;;;;;7.36;100.00;102742.13;4998798;28;20045;-78
2022/03/22 01:40:06;;;;;;;45.47;22.80;;;;;;;7.31;100.00;102745.03;4993619;28;20400;-76
2022/03/22 01:42:32;;;;;;;47.60;22.92;;;;;;;7.33;100.00;102744.97;4998599;28;20022;-78
2022/03/22 01:44:58;;;;;;;47.70;23.05;;;;;;;7.29;100.00;102741.44;4999250;28;20035;-78
2022/03/22 01:47:24;;;;;;;51.53;23.45;;;;;;;7.11;100.00;102748.41;5005086;28;20412;-77
2022/03/22 01:49:51;;;;;;;57.10;24.35;;;;;;;7.08;100.00;102744.91;5025271;28;20105;-77
2022/03/22 01:52:21;;;;;;;53.33;25.27;;;;;;;6.99;100.00;102737.94;5000330;28;20041;-78
2022/03/22 01:54:49;;;;;;;55.70;24.42;;;;;;;7.12;100.00;102752.94;4996363;28;20053;-77
2022/03/22 01:57:19;;;;;;;49.20;24.30;;;;;;;7.03;100.00;102739.63;4979264;28;20041;-78
2022/03/22 01:59:46;;;;;;;54.95;24.05;;;;;;;6.97;100.00;102743.44;4981186;28;20108;-78
2022/03/22 02:07:43;;;;;;;52.70;25.02;;;;;;;6.73;100.00;102734.25;4998411;28;20041;-78
2022/03/22 02:10:09;;;;;;;50.38;25.40;;;;;;;6.68;100.00;102733.50;4996447;28;20114;-78
2022/03/22 02:12:34;;;;;;;56.33;25.55;;;;;;;6.66;100.00;102731.75;4998925;28;20058;-78
2022/03/22 02:15:00;;;;;;;55.80;23.27;;;;;;;6.62;100.00;102730.97;4983057;28;20054;-78
2022/03/22 02:17:25;;;;;;;51.65;23.35;;;;;;;6.54;100.00;102719.44;4998196;28;20034;-78
2022/03/22 02:19:51;;;;;;;51.88;24.38;;;;;;;6.46;100.00;102717.00;5000075;28;20026;-77
2022/03/22 02:22:18;;;;;;;51.58;23.98;;;;;;;6.41;100.00;102721.66;4996764;28;20066;-78
2022/03/22 02:24:44;;;;;;;46.72;22.45;;;;;;;6.35;100.00;102720.03;4999525;28;20030;-78
2022/03/22 02:27:10;;;;;;;50.70;23.60;;;;;;;6.29;100.00;102717.50;5015688;28;20033;-77
2022/03/22 02:29:36;;;;;;;50.63;23.20;;;;;;;6.30;100.00;102716.56;5013015;28;20042;-78
2022/03/22 02:32:03;;;;;;;46.75;23.25;;;;;;;6.43;100.00;102717.97;5031213;28;20032;-78
2022/03/22 02:34:29;;;;;;;50.17;22.67;;;;;;;6.33;100.00;102716.50;5000558;28;20046;-78
2022/03/22 02:36:54;;;;;;;48.95;24.02;;;;;;;6.41;100.00;102713.50;4995030;28;20034;-77
2022/03/22 02:39:20;;;;;;;54.33;23.85;;;;;;;6.43;100.00;102719.81;4998733;28;20038;-78
2022/03/22 02:41:50;;;;;;;59.35;24.10;;;;;;;6.47;100.00;102718.75;5006556;28;20109;-78
2022/03/22 02:44:16;;;;;;;48.03;24.05;;;;;;;6.39;100.00;102721.72;4992146;28;20473;-78
2022/03/22 02:46:41;;;;;;;52.50;22.90;;;;;;;6.32;100.00;102719.25;4997369;28;20046;-78
2022/03/22 02:49:07;;;;;;;52.03;24.30;;;;;;;6.24;100.00;102725.81;4999489;28;20505;-78
2022/03/22 02:51:33;;;;;;;52.58;23.58;;;;;;;6.19;100.00;102729.63;4999312;28;20026;-78
2022/03/22 02:53:58;;;;;;;50.97;24.02;;;;;;;6.10;100.00;102732.59;4994822;28;20030;-77
2022/03/22 02:56:24;;;;;;;53.05;23.17;;;;;;;6.08;100.00;102727.22;4997024;28;20038;-78
2022/03/22 02:58:49;;;;;;;47.60;23.17;;;;;;;6.06;100.00;102727.25;4998103;28;20050;-78
2022/03/22 03:01:15;;;;;;;52.30;23.40;;;;;;;6.06;100.00;102729.09;4997000;28;20041;-78
2022/03/22 03:03:40;;;;;;;53.72;22.83;;;;;;;6.07;100.00;102731.75;4998509;28;20038;-78
2022/03/22 03:06:06;;;;;;;48.97;23.45;;;;;;;6.04;100.00;102741.84;5000004;28;20038;-78
2022/03/22 03:08:32;;;;;;;44.63;23.20;;;;;;;5.94;100.00;102729.44;4998208;28;20104;-78
2022/03/22 03:10:57;;;;;;;50.25;22.98;;;;;;;5.85;100.00;102730.56;5022612;28;20035;-78
2022/03/22 03:13:23;;;;;;;47.35;23.98;;;;;;;5.98;100.00;102729.31;4996605;28;20038;-78
2022/03/22 03:15:50;;;;;;;54.05;24.33;;;;;;;5.94;100.00;102734.88;4996532;28;20030;-78
2022/03/22 03:18:18;;;;;;;52.17;23.27;;;;;;;5.94;100.00;102727.59;4992993;28;20034;-78
2022/03/22 03:20:43;;;;;;;46.85;23.67;;;;;;;5.98;100.00;102733.88;5012777;28;20481;-78
2022/03/22 03:23:09;;;;;;;51.50;23.73;;;;;;;5.87;100.00;102735.03;4998231;28;20053;-78
2022/03/22 03:25:35;;;;;;;53.65;23.42;;;;;;;5.71;100.00;102742.72;4997790;28;20090;-78
2022/03/22 03:28:01;;;;;;;49.80;22.77;;;;;;;5.56;100.00;102737.75;5023319;28;20041;-78
2022/03/22 03:30:29;;;;;;;48.78;23.60;;;;;;;5.63;100.00;102739.34;4998301;28;20496;-77
2022/03/22 03:32:55;;;;;;;49.40;23.38;;;;;;;5.56;100.00;102736.81;4978683;28;20093;-77
2022/03/22 03:35:20;;;;;;;56.78;23.35;;;;;;;5.62;100.00;102740.25;4997056;28;20034;-77
2022/03/22 03:37:46;;;;;;;46.42;23.33;;;;;;;5.64;100.00;102738.41;4996704;28;20030;-77
2022/03/22 03:40:13;;;;;;;50.03;22.55;;;;;;;5.69;100.00;102738.28;4997861;28;20118;-78
2022/03/22 03:42:42;;;;;;;50.58;23.55;;;;;;;5.64;100.00;102732.06;4998352;28;20034;-78
2022/03/22 03:47:55;;;;;;;56.17;23.77;;;;;;;5.46;100.00;102741.63;4994648;28;20042;-77
2022/03/22 03:50:21;;;;;;;53.58;24.38;;;;;;;5.46;100.00;102744.34;4993546;28;20027;-78
2022/03/22 03:52:47;;;;;;;53.00;22.60;;;;;;;5.53;100.00;102746.84;5024464;28;20478;-78
2022/03/22 03:55:13;;;;;;;44.15;21.05;;;;;;;5.46;100.00;102745.25;4996098;28;20034;-77
2022/03/22 03:57:38;;;;;;;60.45;23.05;;;;;;;5.49;100.00;102741.53;4995043;28;20034;-78
2022/03/22 04:00:07;;;;;;;47.20;22.80;;;;;;;5.42;100.00;102748.97;5001590;28;20109;-78
2022/03/22 04:02:32;;;;;;;48.92;23.85;;;;;;;5.41;100.00;102752.63;5006835;28;20097;-78
2022/03/22 04:04:58;;;;;;;51.53;24.10;;;;;;;5.49;100.00;102755.13;5022584;28;20033;-77
2022/03/22 04:07:26;;;;;;;47.28;23.25;;;;;;;5.59;100.00;102759.41;4992979;28;20120;-77
2022/03/22 04:09:54;;;;;;;54.42;23.17;;;;;;;5.43;100.00;102758.91;5027273;28;20026;-78
2022/03/22 04:12:20;;;;;;;54.97;23.95;;;;;;;5.49;100.00;102764.19;5011821;28;20121;-77
2022/03/22 04:14:48;;;;;;;58.78;24.42;;;;;;;5.46;100.00;102764.28;4998723;28;20105;-77
2022/03/22 04:17:14;;;;;;;54.75;25.67;;;;;;;5.59;100.00;102756.69;4995598;28;20094;-77
2022/03/22 04:19:41;;;;;;;46.00;23.65;;;;;;;5.59;100.00;102766.63;4999288;28;20117;-77
2022/03/22 04:22:08;;;;;;;49.92;25.38;;;;;;;5.45;100.00;102765.19;5010678;28;20446;-77
2022/03/22 04:24:34;;;;;;;54.28;24.10;;;;;;;5.58;100.00;102770.31;4993186;28;20109;-77
2022/03/22 04:32:44;;;;;;;53.42;24.08;;;;;;;5.30;100.00;102773.75;4988770;28;20121;-78
2022/03/22 04:35:28;;;;;;;58.55;24.67;;;;;;;5.33;100.00;102770.97;4995771;28;20109;-78
2022/03/22 04:37:55;;;;;;;52.80;24.27;;;;;;;5.24;100.00;102766.66;4998293;28;20045;-78
2022/03/22 04:40:22;;;;;;;50.40;23.73;;;;;;;5.19;100.00;102762.28;4997383;28;20082;-78
2022/03/22 04:42:48;;;;;;;66.30;24.73;;;;;;;5.14;100.00;102760.56;4994357;28;20116;-77
2022/03/22 04:45:14;;;;;;;50.33;23.27;;;;;;;5.23;100.00;102778.47;5010660;28;20409;-77
2022/03/22 04:47:40;;;;;;;47.28;23.52;;;;;;;5.18;100.00;102777.66;4996888;28;20030;-76
2022/03/22 04:50:08;;;;;;;51.65;25.25;;;;;;;5.17;100.00;102777.72;4993606;28;20117;-77
2022/03/22 04:58:03;;;;;;;45.38;23.85;;;;;;;5.07;100.00;102771.63;5023687;28;20449;-76
2022/03/22 05:00:29;;;;;;;54.70;24.17;;;;;;;4.95;100.00;102775.50;5024162;28;20133;-76
2022/03/22 05:02:55;;;;;;;53.97;24.45;;;;;;;4.89;100.00;102778.41;4992958;28;20485;-76
2022/03/22 05:06:25;;;;;;;47.05;24.23;;;;;;;4.93;100.00;102777.38;4992688;28;20060;-76
2022/03/22 05:08:06;;;;;;;50.05;22.65;;;;;;;4.92;100.00;102775.59;5019602;28;20045;-76
2022/03/22 05:10:35;;;;;;;53.63;22.83;;;;;;;5.02;100.00;102782.59;4994135;28;20026;-77
2022/03/22 05:13:01;;;;;;;45.10;22.95;;;;;;;4.97;100.00;102774.56;4992900;28;20108;-77
2022/03/22 05:15:27;;;;;;;47.97;22.98;;;;;;;4.84;100.00;102783.03;5006811;28;20030;-77
2022/03/22 05:17:52;;;;;;;47.38;23.27;;;;;;;4.76;100.00;102778.69;4993570;28;20142;-77
2022/03/22 05:20:18;;;;;;;61.65;28.85;;;;;;;4.86;100.00;102782.06;4997956;28;20034;-77
2022/03/22 05:22:44;;;;;;;54.75;23.83;;;;;;;4.94;100.00;102788.22;4988280;28;20497;-77
2022/03/22 05:25:11;;;;;;;52.08;23.83;;;;;;;4.99;100.00;102793.53;4989907;28;20481;-77
2022/03/22 05:27:37;;;;;;;51.97;24.17;;;;;;;4.90;100.00;102796.47;4986954;28;20027;-77
2022/03/22 05:30:04;;;;;;;60.75;23.42;;;;;;;4.89;100.00;102798.28;4992598;28;20046;-76
2022/03/22 05:32:30;;;;;;;54.35;22.88;;;;;;;4.95;100.00;102803.56;5005912;28;20120;-77
2022/03/22 05:34:55;;;;;;;52.00;23.75;;;;;;;4.90;100.00;102802.78;4988644;28;20095;-77
2022/03/22 05:37:22;;;;;;;54.50;22.88;;;;;;;4.79;100.00;102791.31;4991521;28;20066;-77
2022/03/22 05:39:48;;;;;;;44.00;23.27;;;;;;;4.87;100.00;102811.00;4990717;28;20109;-76
2022/03/22 05:42:14;;;;;;;51.53;23.33;;;;;;;4.97;100.00;102808.97;4988484;28;20070;-76
2022/03/22 05:44:39;;;;;;;59.35;23.75;;;;;;;5.03;100.00;102807.91;4992393;28;20116;-77
2022/03/22 05:47:06;;;;;;;55.35;24.20;;;;;;;4.95;100.00;102808.09;5021410;28;20040;-76
2022/03/22 05:49:33;;;;;;;60.30;23.15;;;;;;;4.83;100.00;102813.81;5000530;28;20042;-76
2022/03/22 05:51:59;;;;;;;51.63;24.20;;;;;;;4.91;100.00;102811.81;4991716;28;20517;-76
2022/03/22 05:54:25;;;;;;;58.17;25.05;;;;;;;4.83;100.00;102803.84;4991420;28;20046;-76
2022/03/22 05:56:50;;;;;;;49.85;24.95;;;;;;;4.79;100.00;102813.88;4978124;28;20030;-76
2022/03/22 05:59:16;;;;;;;51.03;23.38;;;;;;;4.93;100.00;102807.25;4994114;28;20037;-76
2022/03/22 06:01:44;;;;;;;58.70;24.92;;;;;;;4.97;100.00;102799.00;4993896;28;20065;-77
2022/03/22 06:04:11;;;;;;;53.15;24.42;;;;;;;5.05;100.00;102800.63;5002636;28;20041;-76
2022/03/22 06:06:37;;;;;;;54.70;24.88;;;;;;;5.21;100.00;102812.00;4994402;28;20038;-76
2022/03/22 06:09:03;;;;;;;61.08;24.50;;;;;;;5.28;100.00;102810.91;4989916;28;20034;-76
2022/03/22 06:11:33;;;;;;;63.47;26.55;;;;;;;5.27;100.00;102810.03;4994645;28;20092;-76
2022/03/22 06:13:58;;;;;;;57.63;26.33;;;;;;;5.33;100.00;102814.41;4981378;28;20042;-76
2022/03/22 06:16:24;;;;;;;69.18;28.85;;;;;;;5.37;100.00;102815.22;4993959;28;20030;-76
2022/03/22 06:18:50;;;;;;;56.55;26.35;;;;;;;5.36;100.00;102813.44;5000717;28;20042;-76
2022/03/22 06:21:15;;;;;;;59.70;26.50;;;;;;;5.35;100.00;102812.56;5009866;28;20157;-76
2022/03/22 06:23:41;;;;;;;60.63;26.25;;;;;;;5.44;100.00;102822.28;4995246;28;20042;-75
2022/03/22 06:26:06;;;;;;;53.17;26.92;;;;;;;5.40;100.00;102818.75;4991870;28;20042;-75
2022/03/22 06:28:32;;;;;;;54.67;27.48;;;;;;;5.36;100.00;102827.91;4992689;28;20030;-76
2022/03/22 06:30:57;;;;;;;61.63;27.63;;;;;;;5.44;100.00;102822.28;5000422;28;20116;-77
2022/03/22 06:33:24;;;;;;;51.55;26.80;;;;;;;5.61;100.00;102819.13;5009331;28;20050;-76
2022/03/22 06:35:50;;;;;;;68.18;28.05;;;;;;;5.63;100.00;102834.44;5002128;28;20038;-76
2022/03/22 06:38:16;;;;;;;54.13;27.30;;;;;;;5.71;100.00;102829.69;4994136;28;20057;-76
2022/03/22 06:40:42;;;;;;;68.43;29.02;;;;;;;5.71;100.00;102826.97;4994899;28;20045;-77
2022/03/22 06:43:10;;;;;;;59.03;27.33;;;;;;;5.99;100.00;102831.69;4998572;28;20034;-75
2022/03/22 06:45:37;;;;;;;57.35;27.90;;;;;;;6.19;100.00;102827.53;4993749;28;20370;-75
2022/03/22 06:48:03;;;;;;;57.97;28.05;;;;;;;6.32;100.00;102826.22;4977490;28;20118;-75
2022/03/22 06:50:31;;;;;;;62.40;29.38;;;;;;;6.37;100.00;102832.44;4993109;28;20096;-75
2022/03/22 06:52:57;;;;;;;62.50;30.05;;;;;;;6.47;100.00;102833.03;4993902;28;20041;-76
2022/03/22 06:55:22;;;;;;;67.88;30.10;;;;;;;6.62;100.00;102832.59;4975648;28;20778;-76
2022/03/22 06:57:51;;;;;;;60.33;29.35;;;;;;;6.82;100.00;102841.94;4993307;28;20116;-76
2022/03/22 07:00:18;;;;;;;58.58;28.52;;;;;;;6.68;100.00;102839.66;4978948;28;20409;-76
2022/03/22 07:02:44;;;;;;;71.22;28.48;;;;;;;6.86;100.00;102846.38;5017467;28;20034;-76
2022/03/22 07:05:11;;;;;;;60.58;28.42;;;;;;;7.10;100.00;102844.72;4993526;28;20061;-76
2022/03/22 07:07:38;;;;;;;58.58;28.23;;;;;;;7.31;100.00;102853.09;4991607;28;20470;-76
2022/03/22 07:10:09;;;;;;;58.70;27.15;;;;;;;7.47;100.00;102853.50;4991101;28;20061;-75
2022/03/22 07:12:51;;;;;;;66.28;25.13;;;;;;;7.78;100.00;102841.53;4990184;28;20121;-75
2022/03/22 07:15:26;;;;;;;56.00;25.23;;;;;;;8.02;100.00;102847.97;4991345;28;20037;-75
2022/03/22 07:17:52;;;;;;;48.90;27.15;;;;;;;8.31;100.00;102855.03;4974028;28;20033;-76
2022/03/22 07:20:19;;;;;;;51.90;26.98;;;;;;;8.64;100.00;102849.28;4994557;28;20034;-75
2022/03/22 07:22:46;;;;;;;67.93;30.08;;;;;;;8.58;100.00;102853.16;4993115;28;20046;-76
2022/03/22 07:25:11;;;;;;;60.38;26.55;;;;;;;9.17;100.00;102846.25;4993803;28;20034;-76
2022/03/22 07:27:37;;;;;;;56.03;25.67;;;;;;;9.32;100.00;102842.00;4993139;28;20042;-76
2022/03/22 07:30:04;;;;;;;49.80;24.52;;;;;;;9.64;100.00;102858.91;4994784;28;20031;-76
2022/03/22 07:32:29;;;;;;;51.97;23.25;;;;;;;9.71;100.00;102846.72;4994558;28;20495;-77
2022/03/22 07:34:57;;;;;;;44.20;23.55;;;;;;;10.10;100.00;102854.13;4996418;28;20116;-76
2022/03/22 07:37:23;;;;;;;46.15;24.05;;;;;;;10.24;99.96;102849.88;4994042;28;20470;-77
2022/03/22 07:39:48;;;;;;;48.47;23.13;;;;;;;10.23;100.00;102856.28;4997198;28;20044;-78
2022/03/22 07:42:14;;;;;;;46.25;22.92;;;;;;;10.22;98.69;102847.22;4976493;28;20031;-78
2022/03/22 07:44:39;;;;;;;49.50;23.13;;;;;;;10.42;100.00;102848.19;4994639;28;20084;-77
2022/03/22 07:47:06;;;;;;;44.53;23.23;;;;;;;10.63;97.05;102851.75;5007960;28;20037;-77
2022/03/22 07:54:59;;;;;;;43.63;22.15;;;;;;;11.01;89.61;102855.38;4994031;28;20176;-77
2022/03/22 07:57:25;;;;;;;45.35;21.52;;;;;;;11.25;88.11;102855.16;4994372;28;20117;-77
2022/03/22 07:59:51;;;;;;;44.28;21.08;;;;;;;11.34;86.96;102857.41;4994801;28;20030;-76
2022/03/22 08:02:16;;;;;;;44.10;23.17;;;;;;;11.43;88.18;102860.66;5025645;28;20093;-77
2022/03/22 08:04:42;;;;;;;43.00;22.27;;;;;;;11.59;86.68;102861.66;4995397;28;20065;-77
2022/03/22 08:07:09;;;;;;;43.42;22.40;;;;;;;11.78;85.42;102861.63;4995548;28;20477;-77
2022/03/22 08:09:35;;;;;;;45.10;22.88;;;;;;;11.94;84.33;102856.25;4993835;28;20033;-77
2022/03/22 08:12:01;;;;;;;41.78;20.80;;;;;;;12.30;84.25;102861.63;4993174;28;20034;-77
2022/03/22 08:14:26;;;;;;;42.10;22.52;;;;;;;12.44;82.61;102854.50;4995332;28;20060;-77
2022/03/22 08:16:52;;;;;;;42.40;20.70;;;;;;;12.81;80.16;102860.69;4985109;28;20034;-77
2022/03/22 08:19:18;;;;;;;44.38;23.20;;;;;;;13.05;78.64;102866.66;5007345;28;20073;-78
2022/03/22 08:21:48;;;;;;;45.38;21.35;;;;;;;13.30;76.89;102863.38;4993846;28;20152;-76
2022/03/22 08:24:14;;;;;;;44.90;21.95;;;;;;;13.36;76.38;102859.41;5025814;28;20026;-77
2022/03/22 08:26:40;;;;;;;48.13;22.40;;;;;;;13.55;75.02;102862.84;4995250;28;20038;-76
2022/03/22 08:29:06;;;;;;;41.42;20.05;;;;;;;13.44;75.80;102865.34;5000330;28;20079;-76
2022/03/22 08:31:31;;;;;;;37.97;20.90;;;;;;;13.55;77.68;102862.84;4995381;28;20061;-77
2022/03/22 08:33:57;;;;;;;41.00;20.77;;;;;;;14.10;73.06;102857.72;4999645;28;20053;-77
2022/03/22 08:36:23;;;;;;;37.17;21.50;;;;;;;14.20;72.20;102867.19;4996321;28;20021;-77
2022/03/22 08:38:49;;;;;;;39.80;21.48;;;;;;;14.27;69.89;102862.19;4992840;28;20038;-77
2022/03/22 08:41:15;;;;;;;43.50;20.63;;;;;;;14.49;71.13;102864.47;4995891;28;20034;-77
2022/03/22 08:43:42;;;;;;;38.15;20.45;;;;;;;14.32;69.90;102862.78;4998841;28;20042;-77
2022/03/22 08:46:08;;;;;;;43.42;21.60;;;;;;;14.60;69.51;102853.66;5010086;28;20152;-77
2022/03/22 08:48:34;;;;;;;40.03;22.50;;;;;;;14.94;68.65;102864.38;4993188;28;20093;-77
2022/03/22 08:51:01;;;;;;;43.45;21.85;;;;;;;15.20;66.95;102866.31;4992853;28;20035;-77
2022/03/22 08:53:27;;;;;;;44.47;22.30;;;;;;;15.48;65.93;102864.47;5001119;28;20061;-77
2022/03/22 08:55:52;;;;;;;41.45;22.05;;;;;;;14.78;67.50;102859.88;5013841;28;20389;-78
2022/03/22 08:58:18;;;;;;;42.92;22.42;;;;;;;15.33;68.89;102857.19;4983916;28;20034;-77
2022/03/22 09:00:48;;;;;;;46.28;21.65;;;;;;;15.78;63.77;102850.44;5009502;28;20053;-78
2022/03/22 09:03:15;;;;;;;39.17;20.77;;;;;;;16.05;62.28;102855.03;4989837;28;20038;-77
2022/03/22 09:08:24;;;;;;;42.58;22.25;;;;;;;16.01;64.15;102855.38;5024792;28;20433;-76
2022/03/22 09:10:51;;;;;;;37.72;20.98;;;;;;;16.29;62.85;102863.47;5024206;28;20027;-78
2022/03/22 09:13:18;;;;;;;42.30;21.10;;;;;;;16.07;64.28;102852.16;4977246;28;20041;-76
2022/03/22 09:15:44;;;;;;;40.03;21.75;;;;;;;16.10;65.19;102851.94;4992959;28;20023;-76
2022/03/22 09:18:21;;;;;;;40.25;22.58;;;;;;;16.18;65.35;102855.03;4993108;28;20034;-76
2022/03/22 09:20:47;;;;;;;35.95;22.40;;;;;;;17.11;59.61;102852.00;4993262;28;20077;-77
2022/03/22 09:23:13;;;;;;;42.38;21.85;;;;;;;16.69;61.37;102844.00;4993639;28;20037;-77
2022/03/22 09:25:41;;;;;;;47.13;21.92;;;;;;;16.32;62.93;102843.91;4974580;28;20034;-77
2022/03/22 09:28:07;;;;;;;40.17;20.55;;;;;;;17.34;58.23;102841.97;4993256;28;20493;-77
2022/03/22 09:30:34;;;;;;;41.47;22.52;;;;;;;17.64;57.19;102840.59;5031150;28;20023;-77
2022/03/22 09:33:04;;;;;;;37.10;21.60;;;;;;;17.45;57.72;102836.50;4990179;28;20363;-78
2022/03/22 09:35:31;;;;;;;46.28;22.10;;;;;;;17.45;57.10;102830.94;4991997;28;20046;-78
2022/03/22 09:37:57;;;;;;;38.92;22.30;;;;;;;17.42;57.31;102844.16;4998561;28;20382;-78
2022/03/22 09:40:23;;;;;;;40.80;21.98;;;;;;;17.67;55.59;102836.72;4998350;28;20465;-79
2022/03/22 09:42:49;;;;;;;40.75;22.55;;;;;;;17.74;57.25;102847.22;5000518;28;20026;-77
2022/03/22 09:45:18;;;;;;;41.45;21.58;;;;;;;18.27;52.47;102844.00;5027196;28;20049;-77
2022/03/22 09:47:45;;;;;;;39.20;21.13;;;;;;;17.82;54.64;102841.97;4994863;28;20034;-76
2022/03/22 09:50:13;;;;;;;38.70;22.00;;;;;;;17.85;53.42;102837.16;4994465;28;20034;-77
2022/03/22 09:52:40;;;;;;;41.72;21.65;;;;;;;18.31;52.52;102833.53;4987484;28;20371;-78
2022/03/22 09:55:08;;;;;;;40.38;22.27;;;;;;;18.00;52.43;102833.22;4983351;28;20030;-78
2022/03/22 09:57:34;;;;;;;37.95;20.85;;;;;;;18.84;49.82;102831.09;4991941;28;20072;-77
2022/03/22 10:00:01;;;;;;;39.03;22.15;;;;;;;19.39;46.30;102835.78;4995163;28;20080;-76
2022/03/22 10:02:32;;;;;;;43.67;22.50;;;;;;;19.24;45.94;102819.38;5005634;28;20038;-76
2022/03/22 10:04:58;;;;;;;41.17;21.25;;;;;;;19.07;47.06;102831.03;4971631;28;20103;-77
2022/03/22 10:07:28;;;;;;;39.63;22.35;;;;;;;19.36;45.25;102828.56;4994035;28;20066;-77
2022/03/22 10:09:56;;;;;;;35.95;20.88;;;;;;;19.34;44.50;102827.81;5024061;28;20031;-77
2022/03/22 10:12:27;;;;;;;38.22;20.85;;;;;;;19.43;45.06;102820.59;5014647;28;20050;-78
2022/03/22 10:14:53;;;;;;;37.42;20.90;;;;;;;19.31;45.25;102819.75;4980748;28;20100;-78
2022/03/22 10:17:18;;;;;;;41.30;22.20;;;;;;;19.43;42.71;102815.03;4998284;28;20058;-78
2022/03/22 10:19:47;;;;;;;42.42;21.50;;;;;;;19.83;42.55;102819.97;4997721;28;20078;-78
2022/03/22 10:22:14;;;;;;;41.60;22.42;;;;;;;19.43;42.76;102815.03;4997170;28;20086;-79
2022/03/22 10:24:43;;;;;;;41.38;20.48;;;;;;;19.42;41.83;102816.06;5011687;28;20561;-79
2022/03/22 10:27:27;;;;;;;38.42;20.58;;;;;;;19.38;41.96;102811.78;4996613;28;20037;-79
2022/03/22 10:29:57;;;;;;;44.78;21.02;;;;;;;19.41;41.83;102804.09;4995903;28;20394;-79
2022/03/22 10:32:52;;;;;;;38.28;21.80;;;;;;;19.38;41.09;102809.91;4994703;28;20739;-79
2022/03/22 10:35:20;;;;;;;37.85;22.52;;;;;;;19.66;40.67;102810.31;4996447;28;20047;-79
2022/03/22 10:37:50;;;;;;;37.90;20.65;;;;;;;19.28;40.26;102807.03;5013157;28;20077;-78
2022/03/22 10:40:31;;;;;;;37.85;20.52;;;;;;;19.87;39.16;102801.97;5027817;28;20031;-78
2022/03/22 10:43:27;;;;;;;34.55;19.20;;;;;;;20.18;37.56;102807.63;5029164;28;20038;-79
2022/03/22 10:45:54;;;;;;;40.25;20.10;;;;;;;20.26;36.97;102807.81;5028238;28;20038;-79
2022/03/22 10:48:20;;;;;;;39.83;20.48;;;;;;;20.11;38.82;102806.41;4998090;28;20109;-79
2022/03/22 10:50:47;;;;;;;38.58;20.80;;;;;;;19.84;39.01;102805.06;5010960;28;20045;-79
2022/03/22 10:53:15;;;;;;;36.55;20.42;;;;;;;20.23;38.42;102810.00;5010399;28;20117;-78
2022/03/22 10:55:42;;;;;;;38.75;20.77;;;;;;;19.55;39.49;102804.78;4994442;28;20561;-79
2022/03/22 10:58:10;;;;;;;36.22;19.77;;;;;;;20.18;39.16;102804.84;5011891;28;20042;-78
2022/03/22 11:00:36;;;;;;;39.70;20.10;;;;;;;19.84;39.32;102796.72;4979445;28;20129;-77
2022/03/22 11:03:05;;;;;;;40.15;21.02;;;;;;;19.61;41.00;102801.44;4996170;28;20492;-79
2022/03/22 11:05:32;;;;;;;36.53;19.90;;;;;;;19.71;40.31;102796.88;4994343;28;20535;-79
2022/03/22 11:07:58;;;;;;;42.28;19.48;;;;;;;19.71;40.04;102793.19;4999556;28;20121;-80
2022/03/22 11:10:25;;;;;;;39.45;21.10;;;;;;;19.56;40.91;102793.53;4996991;28;20109;-80
2022/03/22 11:12:51;;;;;;;35.55;19.63;;;;;;;19.91;39.41;102792.38;4990473;28;20046;-78
2022/03/22 11:15:18;;;;;;;38.50;21.30;;;;;;;19.75;40.47;102786.38;4995864;28;20109;-78
2022/03/22 11:17:46;;;;;;;47.53;21.17;;;;;;;20.11;38.82;102779.47;4995427;28;20420;-78
2022/03/22 11:20:13;;;;;;;39.47;22.92;;;;;;;19.28;41.80;102781.13;4994532;28;20034;-78
2022/03/22 11:22:48;;;;;;;46.60;19.83;;;;;;;19.74;41.40;102773.47;5012679;28;20454;-78
2022/03/22 11:25:18;;;;;;;36.60;20.13;;;;;;;19.86;41.24;102774.31;4995287;28;20035;-78
2022/03/22 11:27:56;;;;;;;44.78;21.23;;;;;;;19.71;39.79;102773.75;4995918;28;20417;-78
2022/03/22 11:30:22;;;;;;;47.22;21.85;;;;;;;19.72;40.65;102773.59;4996115;28;20058;-77
2022/03/22 11:35:31;;;;;;;42.85;21.75;;;;;;;20.11;39.83;102771.13;4993502;28;20041;-78
2022/03/22 11:38:00;;;;;;;44.08;21.95;;;;;;;19.80;41.27;102764.63;5011064;28;20042;-78
2022/03/22 11:43:14;;;;;;;41.97;21.45;;;;;;;19.83;39.28;102768.00;5000469;28;20044;-77